Vremea mâine în Beclean - Romania

Vrei sa afli care e starea vremii acum in Bistrita-Nasaud - Romania? Dorim sa iti furnizam starea vremii pentru Bistrita-Nasaud - Romania. Starea vremii Bistrita-Nasaud - Romania pentru astazi.

Vremea mâine în Beclean

Temperatura minimă:
6.9 °C

Temperatura maximă:
22.5 °C

Mâine va fi: Senin
Precipitații: 0 %
Umiditate: 66%
Viteza maximă vânt mâine:
10.1 km/h

Evoluția vremii in Beclean pe ore mâine

Ora: 12:00
Temperatura: °C
Sansa de precipitatii: %
Ora Descriere Temp Se simte Precipitatii Umiditate Vant
00:00Senin9.8°9.8°0%79%NNW 2.9 KM/H
01:00Senin9.2°9.2°0%81%N 2.2 KM/H
02:00Senin8.7°8.7°0%82%NE 1.8 KM/H
03:00Senin8.2°8.2°0%84%E 1.8 KM/H
04:00Senin7.7°7.7°0%85%ESE 2.5 KM/H
05:00Senin7.3°7.4°0%86%ESE 3.2 KM/H
06:00Senin6.9°6.8°0%87%ESE 3.6 KM/H
07:00Senin7.8°7.6°0%87%ESE 4 KM/H
08:00Senin12.1°12.2°0%80%ESE 5 KM/H
09:00Senin14.2°14.3°0%73%ESE 6.1 KM/H
10:00Senin16.1°16.1°0%67%SE 7.9 KM/H
11:00Senin17.9°17.9°0%62%SE 9.4 KM/H
12:00Senin19.4°19.4°0%57%SE 10.1 KM/H
13:00Senin20.6°20.6°0%52%SE 10.1 KM/H
14:00Senin21.5°21.5°0%49%SSE 10.1 KM/H
15:00Senin22.1°24.3°0%46%SE 10.1 KM/H
16:00Senin22.4°24.3°0%43%SE 9.4 KM/H
17:00Senin22.5°24.3°0%42%SSE 7.9 KM/H
18:00Senin22.3°24.3°0%43%SSE 7.2 KM/H
19:00Senin21.3°21.3°0%56%S 5 KM/H
20:00Senin16°16°0%59%S 3.6 KM/H
21:0013.9°13.9°0%63%SE 2.5 KM/H
22:00Thundery outbreaks in nearby13.6°13.6°0%62%E 1.4 KM/H
23:00Patchy rain nearby12.6°12.6°89%65%NNE 1.1 KM/H




tutorials